LRT weather

Lorient South Brittany (Bretagne Sud) Airport
Lorient/Lann/Bihoué, Brittany, France

Public forecast

Using degrees Celsius for public forecast. Weather courtesy of forecast.io.

Current aviation weather report (METAR) for Lorient South Brittany (Bretagne Sud) Airport

Retrieved 2020/02/19 16:30 UTC (0 seconds ago):

LFRH 191630Z AUTO 23015KT 9999 FEW018 SCT034 BKN048 10/07 Q1025 TEMPO 4500 RA BKN008 BECMG 25010G25KT

Aviation forecast (TAF) for Lorient South Brittany (Bretagne Sud) Airport

Retrieved 2020/02/19 12:21 UTC (4 hours ago):

TAF LFRH 191100Z 1912/2012 25010G25KT 9999 BKN015 BKN025 TEMPO 1912/2002 4500 RA PROB40 TEMPO 1912/1919 BKN008 BECMG 2002/2004 BKN035 BECMG 2009/2011 22020G35KT BKN015 BECMG 2010/2012 -RADZ BKN008 OVC012